sensor_id;sensor_type;location;lat;lon;timestamp;pressure;altitude;pressure_sealevel;temperature;humidity
19624;BME280;9959;49.798;9.928;2023-04-20T00:01:29;99782.91;;;4.63;74.60
19624;BME280;9959;49.798;9.928;2023-04-20T00:03:56;99771.25;;;4.64;74.33
19624;BME280;9959;49.798;9.928;2023-04-20T00:06:25;99772.69;;;4.83;73.82
19624;BME280;9959;49.798;9.928;2023-04-20T00:08:55;99764.78;;;4.97;72.69
19624;BME280;9959;49.798;9.928;2023-04-20T00:11:22;99764.41;;;5.08;72.53
19624;BME280;9959;49.798;9.928;2023-04-20T00:13:49;99759.09;;;5.00;72.50
19624;BME280;9959;49.798;9.928;2023-04-20T00:16:15;99755.34;;;5.18;71.89
19624;BME280;9959;49.798;9.928;2023-04-20T00:18:45;99749.63;;;5.21;71.74
19624;BME280;9959;49.798;9.928;2023-04-20T00:21:12;99749.38;;;5.07;72.45
19624;BME280;9959;49.798;9.928;2023-04-20T00:23:39;99746.44;;;5.25;71.68
19624;BME280;9959;49.798;9.928;2023-04-20T00:26:07;99751.31;;;5.22;71.81
19624;BME280;9959;49.798;9.928;2023-04-20T00:28:35;99745.13;;;5.21;72.10
19624;BME280;9959;49.798;9.928;2023-04-20T00:31:02;99733.16;;;5.17;72.54
19624;BME280;9959;49.798;9.928;2023-04-20T00:33:28;99740.84;;;5.12;72.39
19624;BME280;9959;49.798;9.928;2023-04-20T00:35:55;99728.50;;;5.11;72.60
19624;BME280;9959;49.798;9.928;2023-04-20T00:38:22;99730.31;;;5.19;72.76
19624;BME280;9959;49.798;9.928;2023-04-20T00:40:49;99727.53;;;5.04;73.57
19624;BME280;9959;49.798;9.928;2023-04-20T00:43:20;99724.69;;;5.05;73.62
19624;BME280;9959;49.798;9.928;2023-04-20T00:45:47;99724.69;;;5.05;74.15
19624;BME280;9959;49.798;9.928;2023-04-20T00:48:14;99724.97;;;5.19;73.69
19624;BME280;9959;49.798;9.928;2023-04-20T00:50:41;99719.44;;;5.20;73.67
19624;BME280;9959;49.798;9.928;2023-04-20T00:53:08;99719.25;;;5.22;73.49
19624;BME280;9959;49.798;9.928;2023-04-20T00:55:37;99718.91;;;5.25;73.45
19624;BME280;9959;49.798;9.928;2023-04-20T00:58:05;99718.25;;;5.23;73.12
19624;BME280;9959;49.798;9.928;2023-04-20T01:00:32;99716.97;;;5.19;73.54
19624;BME280;9959;49.798;9.928;2023-04-20T01:02:59;99708.94;;;5.19;73.57
19624;BME280;9959;49.798;9.928;2023-04-20T01:05:26;99712.56;;;5.26;73.57
19624;BME280;9959;49.798;9.928;2023-04-20T01:07:53;99708.81;;;5.12;73.84
19624;BME280;9959;49.798;9.928;2023-04-20T01:10:20;99708.00;;;5.34;73.30
19624;BME280;9959;49.798;9.928;2023-04-20T01:12:47;99713.47;;;5.18;74.11
19624;BME280;9959;49.798;9.928;2023-04-20T01:15:14;99701.13;;;5.17;74.30
19624;BME280;9959;49.798;9.928;2023-04-20T01:17:41;99693.28;;;5.16;74.33
19624;BME280;9959;49.798;9.928;2023-04-20T01:20:10;99695.47;;;5.12;74.97
19624;BME280;9959;49.798;9.928;2023-04-20T01:22:46;99689.34;;;5.26;74.60
19624;BME280;9959;49.798;9.928;2023-04-20T01:25:13;99686.28;;;5.15;74.78
19624;BME280;9959;49.798;9.928;2023-04-20T01:27:40;99681.63;;;5.08;75.18
19624;BME280;9959;49.798;9.928;2023-04-20T01:30:08;99678.66;;;5.03;75.25
19624;BME280;9959;49.798;9.928;2023-04-20T01:32:35;99677.31;;;4.99;75.85
19624;BME280;9959;49.798;9.928;2023-04-20T01:35:02;99678.50;;;4.97;75.74
19624;BME280;9959;49.798;9.928;2023-04-20T01:37:29;99671.34;;;4.97;75.86
19624;BME280;9959;49.798;9.928;2023-04-20T01:39:57;99668.94;;;5.10;75.73
19624;BME280;9959;49.798;9.928;2023-04-20T01:42:23;99669.59;;;5.13;75.94
19624;BME280;9959;49.798;9.928;2023-04-20T01:44:50;99664.59;;;5.09;75.42
19624;BME280;9959;49.798;9.928;2023-04-20T01:47:17;99657.56;;;5.17;75.80
19624;BME280;9959;49.798;9.928;2023-04-20T01:49:44;99659.22;;;5.18;75.19
19624;BME280;9959;49.798;9.928;2023-04-20T01:52:11;99655.78;;;5.01;75.72
19624;BME280;9959;49.798;9.928;2023-04-20T01:54:38;99653.63;;;5.04;76.16
19624;BME280;9959;49.798;9.928;2023-04-20T01:57:05;99657.41;;;5.10;75.76
19624;BME280;9959;49.798;9.928;2023-04-20T01:59:32;99651.72;;;5.13;75.69
19624;BME280;9959;49.798;9.928;2023-04-20T02:01:59;99652.56;;;5.14;75.72
19624;BME280;9959;49.798;9.928;2023-04-20T02:04:26;99649.59;;;5.08;76.10
19624;BME280;9959;49.798;9.928;2023-04-20T02:06:53;99645.56;;;5.13;76.38
19624;BME280;9959;49.798;9.928;2023-04-20T02:09:20;99645.56;;;5.13;76.21
19624;BME280;9959;49.798;9.928;2023-04-20T02:11:47;99640.56;;;5.09;76.24
19624;BME280;9959;49.798;9.928;2023-04-20T02:14:14;99643.63;;;4.98;76.59
19624;BME280;9959;49.798;9.928;2023-04-20T02:16:41;99637.09;;;5.01;76.66
19624;BME280;9959;49.798;9.928;2023-04-20T02:19:08;99644.81;;;4.96;77.18
19624;BME280;9959;49.798;9.928;2023-04-20T02:21:35;99637.59;;;5.04;76.98
19624;BME280;9959;49.798;9.928;2023-04-20T02:24:02;99644.41;;;5.07;76.58
19624;BME280;9959;49.798;9.928;2023-04-20T02:26:29;99643.19;;;5.18;76.58
19624;BME280;9959;49.798;9.928;2023-04-20T02:28:56;99642.22;;;5.10;76.62
19624;BME280;9959;49.798;9.928;2023-04-20T02:31:23;99635.72;;;5.13;77.25
19624;BME280;9959;49.798;9.928;2023-04-20T02:33:50;99634.56;;;5.07;76.84
19624;BME280;9959;49.798;9.928;2023-04-20T02:36:17;99631.19;;;5.14;76.95
19624;BME280;9959;49.798;9.928;2023-04-20T02:38:44;99633.56;;;5.08;77.23
19624;BME280;9959;49.798;9.928;2023-04-20T02:41:11;99631.56;;;5.10;77.27
19624;BME280;9959;49.798;9.928;2023-04-20T02:43:38;99624.06;;;5.06;77.51
19624;BME280;9959;49.798;9.928;2023-04-20T02:46:05;99626.59;;;4.99;78.52
19624;BME280;9959;49.798;9.928;2023-04-20T02:48:33;99624.25;;;5.04;78.15
19624;BME280;9959;49.798;9.928;2023-04-20T02:51:00;99626.75;;;5.06;78.13
19624;BME280;9959;49.798;9.928;2023-04-20T02:53:26;99618.31;;;5.17;77.83
19624;BME280;9959;49.798;9.928;2023-04-20T02:55:53;99613.50;;;5.13;77.87
19624;BME280;9959;49.798;9.928;2023-04-20T02:58:20;99607.91;;;4.99;78.16
19624;BME280;9959;49.798;9.928;2023-04-20T03:00:47;99610.53;;;5.07;78.50
19624;BME280;9959;49.798;9.928;2023-04-20T03:03:14;99604.59;;;4.97;78.88
19624;BME280;9959;49.798;9.928;2023-04-20T03:05:42;99605.38;;;4.83;79.72
19624;BME280;9959;49.798;9.928;2023-04-20T03:08:09;99600.09;;;4.98;79.12
19624;BME280;9959;49.798;9.928;2023-04-20T03:10:36;99597.09;;;4.93;79.27
19624;BME280;9959;49.798;9.928;2023-04-20T03:13:03;99594.63;;;4.91;79.68
19624;BME280;9959;49.798;9.928;2023-04-20T03:15:29;99596.88;;;5.02;79.50
19624;BME280;9959;49.798;9.928;2023-04-20T03:17:56;99599.59;;;4.94;79.47
19624;BME280;9959;49.798;9.928;2023-04-20T03:20:23;99600.44;;;4.95;79.62
19624;BME280;9959;49.798;9.928;2023-04-20T03:22:50;99592.91;;;4.98;79.69
19624;BME280;9959;49.798;9.928;2023-04-20T03:25:17;99597.00;;;4.86;79.69
19624;BME280;9959;49.798;9.928;2023-04-20T03:27:45;99591.66;;;4.86;79.94
19624;BME280;9959;49.798;9.928;2023-04-20T03:30:13;99593.34;;;4.87;80.25
19624;BME280;9959;49.798;9.928;2023-04-20T03:32:43;99589.75;;;4.95;80.05
19624;BME280;9959;49.798;9.928;2023-04-20T03:35:10;99591.97;;;4.91;79.89
19624;BME280;9959;49.798;9.928;2023-04-20T03:37:37;99592.50;;;4.87;80.38
19624;BME280;9959;49.798;9.928;2023-04-20T03:40:07;99596.59;;;4.97;79.89
19624;BME280;9959;49.798;9.928;2023-04-20T03:42:34;99591.31;;;4.89;80.34
19624;BME280;9959;49.798;9.928;2023-04-20T03:45:00;99592.50;;;4.87;80.14
19624;BME280;9959;49.798;9.928;2023-04-20T03:47:27;99583.13;;;4.91;80.58
19624;BME280;9959;49.798;9.928;2023-04-20T03:49:54;99595.16;;;4.87;80.65
19624;BME280;9959;49.798;9.928;2023-04-20T03:52:21;99588.81;;;4.88;80.59
19624;BME280;9959;49.798;9.928;2023-04-20T03:54:48;99587.81;;;4.89;80.06
19624;BME280;9959;49.798;9.928;2023-04-20T03:57:15;99588.34;;;4.84;80.57
19624;BME280;9959;49.798;9.928;2023-04-20T03:59:41;99587.16;;;4.87;80.72
19624;BME280;9959;49.798;9.928;2023-04-20T04:02:08;99583.75;;;4.93;80.50
19624;BME280;9959;49.798;9.928;2023-04-20T04:04:39;99583.31;;;4.89;80.66
19624;BME280;9959;49.798;9.928;2023-04-20T04:07:06;99583.00;;;4.84;80.86
19624;BME280;9959;49.798;9.928;2023-04-20T04:09:33;99583.00;;;4.84;81.56
19624;BME280;9959;49.798;9.928;2023-04-20T04:12:00;99575.75;;;4.93;81.29
19624;BME280;9959;49.798;9.928;2023-04-20T04:14:27;99577.63;;;4.92;81.42
19624;BME280;9959;49.798;9.928;2023-04-20T04:16:55;99581.00;;;4.86;81.41
19624;BME280;9959;49.798;9.928;2023-04-20T04:19:22;99583.00;;;4.84;81.81
19624;BME280;9959;49.798;9.928;2023-04-20T04:21:49;99580.72;;;4.73;81.69
19624;BME280;9959;49.798;9.928;2023-04-20T04:24:16;99587.03;;;4.80;81.68
19624;BME280;9959;49.798;9.928;2023-04-20T04:26:43;99582.34;;;4.82;81.26
19624;BME280;9959;49.798;9.928;2023-04-20T04:29:11;99576.91;;;4.67;82.04
19624;BME280;9959;49.798;9.928;2023-04-20T04:31:38;99577.41;;;4.71;82.24
19624;BME280;9959;49.798;9.928;2023-04-20T04:34:05;99574.25;;;4.67;82.29
19624;BME280;9959;49.798;9.928;2023-04-20T04:36:32;99575.25;;;4.66;82.80
19624;BME280;9959;49.798;9.928;2023-04-20T04:38:59;99577.75;;;4.68;82.41
19624;BME280;9959;49.798;9.928;2023-04-20T04:41:26;99567.16;;;4.60;82.49
19624;BME280;9959;49.798;9.928;2023-04-20T04:43:53;99563.41;;;4.69;82.19
19624;BME280;9959;49.798;9.928;2023-04-20T04:46:19;99558.53;;;4.72;81.96
19624;BME280;9959;49.798;9.928;2023-04-20T04:48:47;99553.50;;;4.55;82.63
19624;BME280;9959;49.798;9.928;2023-04-20T04:51:14;99549.88;;;4.70;81.89
19624;BME280;9959;49.798;9.928;2023-04-20T04:53:41;99554.03;;;4.73;81.80
19624;BME280;9959;49.798;9.928;2023-04-20T04:56:10;99548.31;;;4.84;81.13
19624;BME280;9959;49.798;9.928;2023-04-20T04:58:38;99551.56;;;4.94;81.39
19624;BME280;9959;49.798;9.928;2023-04-20T05:01:05;99567.56;;;4.94;80.88
19624;BME280;9959;49.798;9.928;2023-04-20T05:03:32;99573.63;;;4.88;81.29
19624;BME280;9959;49.798;9.928;2023-04-20T05:05:59;99572.03;;;4.79;81.33
19624;BME280;9959;49.798;9.928;2023-04-20T05:08:26;99577.72;;;4.76;81.66
19624;BME280;9959;49.798;9.928;2023-04-20T05:10:53;99581.69;;;4.80;81.45
19624;BME280;9959;49.798;9.928;2023-04-20T05:13:19;99578.00;;;4.81;81.26
19624;BME280;9959;49.798;9.928;2023-04-20T05:15:46;99591.75;;;4.70;81.86
19624;BME280;9959;49.798;9.928;2023-04-20T05:18:13;99585.50;;;4.86;82.05
19624;BME280;9959;49.798;9.928;2023-04-20T05:20:40;99584.75;;;4.69;82.33
19624;BME280;9959;49.798;9.928;2023-04-20T05:23:07;99591.47;;;4.65;82.32
19624;BME280;9959;49.798;9.928;2023-04-20T05:25:34;99592.06;;;4.75;82.26
19624;BME280;9959;49.798;9.928;2023-04-20T05:28:01;99593.19;;;4.81;81.93
19624;BME280;9959;49.798;9.928;2023-04-20T05:30:28;99597.00;;;4.86;81.80
19624;BME280;9959;49.798;9.928;2023-04-20T05:32:55;99595.22;;;4.79;82.21
19624;BME280;9959;49.798;9.928;2023-04-20T05:35:24;99600.44;;;4.95;81.67
19624;BME280;9959;49.798;9.928;2023-04-20T05:37:51;99592.59;;;4.93;82.23
19624;BME280;9959;49.798;9.928;2023-04-20T05:40:17;99596.66;;;4.89;81.90
19624;BME280;9959;49.798;9.928;2023-04-20T05:42:44;99592.84;;;5.06;81.45
19624;BME280;9959;49.798;9.928;2023-04-20T05:45:11;99598.19;;;5.06;81.79
19624;BME280;9959;49.798;9.928;2023-04-20T05:47:38;99599.25;;;4.97;81.62
19624;BME280;9959;49.798;9.928;2023-04-20T05:50:06;99597.00;;;5.09;81.79
19624;BME280;9959;49.798;9.928;2023-04-20T05:52:33;99592.25;;;4.96;82.30
19624;BME280;9959;49.798;9.928;2023-04-20T05:54:59;99593.50;;;5.08;81.62
19624;BME280;9959;49.798;9.928;2023-04-20T05:57:26;99600.00;;;5.14;81.50
19624;BME280;9959;49.798;9.928;2023-04-20T05:59:53;99599.84;;;5.07;81.78
19624;BME280;9959;49.798;9.928;2023-04-20T06:02:21;99606.16;;;5.15;81.43
19624;BME280;9959;49.798;9.928;2023-04-20T06:04:48;99599.03;;;5.07;81.35
19624;BME280;9959;49.798;9.928;2023-04-20T06:07:15;99603.78;;;5.20;81.38
19624;BME280;9959;49.798;9.928;2023-04-20T06:09:43;99602.69;;;5.29;80.53
19624;BME280;9959;49.798;9.928;2023-04-20T06:12:10;99603.78;;;5.57;80.21
19624;BME280;9959;49.798;9.928;2023-04-20T06:14:39;99607.13;;;5.59;79.77
19624;BME280;9959;49.798;9.928;2023-04-20T06:17:07;99605.19;;;5.30;80.62
19624;BME280;9959;49.798;9.928;2023-04-20T06:19:33;99601.00;;;5.51;80.04
19624;BME280;9959;49.798;9.928;2023-04-20T06:22:05;99594.13;;;5.56;79.46
19624;BME280;9959;49.798;9.928;2023-04-20T06:24:33;99598.75;;;5.62;79.58
19624;BME280;9959;49.798;9.928;2023-04-20T06:27:00;99606.53;;;5.87;78.98
19624;BME280;9959;49.798;9.928;2023-04-20T06:29:28;99601.75;;;5.44;79.93
19624;BME280;9959;49.798;9.928;2023-04-20T06:31:55;99605.84;;;5.93;78.41
19624;BME280;9959;49.798;9.928;2023-04-20T06:34:22;99604.69;;;5.87;77.35
19624;BME280;9959;49.798;9.928;2023-04-20T06:36:48;99603.16;;;6.07;76.94
19624;BME280;9959;49.798;9.928;2023-04-20T06:39:16;99603.44;;;5.98;76.95
19624;BME280;9959;49.798;9.928;2023-04-20T06:41:43;99596.97;;;6.07;76.02
19624;BME280;9959;49.798;9.928;2023-04-20T06:44:12;99595.97;;;6.08;76.27
19624;BME280;9959;49.798;9.928;2023-04-20T06:46:39;99598.31;;;6.62;73.78
19624;BME280;9959;49.798;9.928;2023-04-20T06:49:06;99597.56;;;6.68;73.61
19624;BME280;9959;49.798;9.928;2023-04-20T06:51:32;99594.91;;;6.68;73.34
19624;BME280;9959;49.798;9.928;2023-04-20T06:54:00;99597.59;;;6.89;72.61
19624;BME280;9959;49.798;9.928;2023-04-20T06:56:27;99594.16;;;6.74;72.33
19624;BME280;9959;49.798;9.928;2023-04-20T06:58:53;99590.22;;;6.91;72.06
19624;BME280;9959;49.798;9.928;2023-04-20T07:01:20;99594.81;;;6.97;71.40
19624;BME280;9959;49.798;9.928;2023-04-20T07:03:47;99599.81;;;7.00;70.77
19624;BME280;9959;49.798;9.928;2023-04-20T07:06:14;99593.91;;;6.90;72.06
19624;BME280;9959;49.798;9.928;2023-04-20T07:08:45;99587.31;;;7.07;71.26
19624;BME280;9959;49.798;9.928;2023-04-20T07:11:15;99579.00;;;7.24;70.39
19624;BME280;9959;49.798;9.928;2023-04-20T07:13:42;99576.38;;;7.52;69.30
19624;BME280;9959;49.798;9.928;2023-04-20T07:16:09;99580.78;;;7.59;68.50
19624;BME280;9959;49.798;9.928;2023-04-20T07:18:36;99576.44;;;7.16;69.27
19624;BME280;9959;49.798;9.928;2023-04-20T07:21:03;99575.84;;;7.63;68.07
19624;BME280;9959;49.798;9.928;2023-04-20T07:23:30;99563.88;;;7.93;66.25
19624;BME280;9959;49.798;9.928;2023-04-20T07:25:57;99563.88;;;7.93;65.81
19624;BME280;9959;49.798;9.928;2023-04-20T07:28:25;99573.50;;;7.53;67.06
19624;BME280;9959;49.798;9.928;2023-04-20T07:30:53;99569.88;;;7.67;66.57
19624;BME280;9959;49.798;9.928;2023-04-20T07:33:20;99572.75;;;8.28;64.63
19624;BME280;9959;49.798;9.928;2023-04-20T07:35:50;99571.00;;;8.07;65.31
19624;BME280;9959;49.798;9.928;2023-04-20T07:38:17;99575.22;;;7.89;65.18
19624;BME280;9959;49.798;9.928;2023-04-20T07:40:44;99573.28;;;8.10;64.71
19624;BME280;9959;49.798;9.928;2023-04-20T07:43:11;99573.56;;;7.60;65.76
19624;BME280;9959;49.798;9.928;2023-04-20T07:45:38;99565.22;;;8.10;64.73
19624;BME280;9959;49.798;9.928;2023-04-20T07:48:07;99570.66;;;8.24;63.60
19624;BME280;9959;49.798;9.928;2023-04-20T07:50:35;99558.88;;;8.59;63.09
19624;BME280;9959;49.798;9.928;2023-04-20T07:53:02;99567.31;;;9.24;61.32
19624;BME280;9959;49.798;9.928;2023-04-20T07:55:29;99570.75;;;8.91;62.00
19624;BME280;9959;49.798;9.928;2023-04-20T07:57:56;99565.19;;;9.06;62.27
19624;BME280;9959;49.798;9.928;2023-04-20T08:00:23;99573.72;;;9.36;61.25
19624;BME280;9959;49.798;9.928;2023-04-20T08:02:50;99569.56;;;9.13;61.02
19624;BME280;9959;49.798;9.928;2023-04-20T08:05:17;99577.66;;;9.40;59.29
19624;BME280;9959;49.798;9.928;2023-04-20T08:07:44;99573.72;;;9.23;59.71
19624;BME280;9959;49.798;9.928;2023-04-20T08:10:11;99573.53;;;8.22;62.31
19624;BME280;9959;49.798;9.928;2023-04-20T08:12:38;99564.28;;;8.66;60.92
19624;BME280;9959;49.798;9.928;2023-04-20T08:15:06;99564.41;;;9.25;59.12
19624;BME280;9959;49.798;9.928;2023-04-20T08:17:33;99565.81;;;9.94;56.44
19624;BME280;9959;49.798;9.928;2023-04-20T08:20:00;99561.09;;;9.36;58.33
19624;BME280;9959;49.798;9.928;2023-04-20T08:22:27;99551.22;;;10.41;55.23
19624;BME280;9959;49.798;9.928;2023-04-20T08:24:56;99552.00;;;10.61;54.42
19624;BME280;9959;49.798;9.928;2023-04-20T08:27:23;99556.00;;;10.90;53.59
19624;BME280;9959;49.798;9.928;2023-04-20T08:29:50;99552.16;;;11.36;52.07
19624;BME280;9959;49.798;9.928;2023-04-20T08:32:17;99552.97;;;11.36;51.67
19624;BME280;9959;49.798;9.928;2023-04-20T08:34:51;99546.34;;;10.05;54.92
19624;BME280;9959;49.798;9.928;2023-04-20T08:37:19;99547.59;;;9.96;55.99
19624;BME280;9959;49.798;9.928;2023-04-20T08:39:45;99553.16;;;10.27;55.33
19624;BME280;9959;49.798;9.928;2023-04-20T08:42:12;99554.50;;;10.94;53.50
19624;BME280;9959;49.798;9.928;2023-04-20T08:44:39;99548.50;;;9.50;57.17
19624;BME280;9959;49.798;9.928;2023-04-20T08:47:08;99546.53;;;10.23;55.77
19624;BME280;9959;49.798;9.928;2023-04-20T08:49:37;99549.94;;;9.53;56.84
19624;BME280;9959;49.798;9.928;2023-04-20T08:52:05;99561.94;;;9.70;56.09
19624;BME280;9959;49.798;9.928;2023-04-20T08:54:36;99548.41;;;11.37;51.92
19624;BME280;9959;49.798;9.928;2023-04-20T08:57:18;99542.25;;;10.60;53.54
19624;BME280;9959;49.798;9.928;2023-04-20T08:59:45;99537.75;;;10.47;53.17
19624;BME280;9959;49.798;9.928;2023-04-20T09:02:12;99547.72;;;10.85;52.36
19624;BME280;9959;49.798;9.928;2023-04-20T09:04:39;99534.88;;;11.18;50.88
19624;BME280;9959;49.798;9.928;2023-04-20T09:07:19;99547.09;;;11.96;48.80
19624;BME280;9959;49.798;9.928;2023-04-20T09:09:56;99541.94;;;12.79;46.64
19624;BME280;9959;49.798;9.928;2023-04-20T09:12:23;99541.09;;;12.12;48.03
19624;BME280;9959;49.798;9.928;2023-04-20T09:14:51;99535.84;;;12.35;47.25
19624;BME280;9959;49.798;9.928;2023-04-20T09:17:38;99537.09;;;11.22;50.38
19624;BME280;9959;49.798;9.928;2023-04-20T09:20:07;99534.59;;;11.76;49.43
19624;BME280;9959;49.798;9.928;2023-04-20T09:22:35;99528.25;;;11.64;49.86
19624;BME280;9959;49.798;9.928;2023-04-20T09:25:15;99522.59;;;12.64;48.01
19624;BME280;9959;49.798;9.928;2023-04-20T09:27:42;99518.38;;;12.01;48.11
19624;BME280;9959;49.798;9.928;2023-04-20T09:30:10;99518.34;;;11.83;48.76
19624;BME280;9959;49.798;9.928;2023-04-20T09:32:37;99515.38;;;12.76;47.31
19624;BME280;9959;49.798;9.928;2023-04-20T09:35:04;99507.00;;;11.74;48.80
19624;BME280;9959;49.798;9.928;2023-04-20T09:37:33;99500.31;;;11.34;51.16
19624;BME280;9959;49.798;9.928;2023-04-20T09:40:03;99514.69;;;11.96;49.83
19624;BME280;9959;49.798;9.928;2023-04-20T09:42:31;99518.56;;;10.69;52.16
19624;BME280;9959;49.798;9.928;2023-04-20T09:45:02;99507.81;;;11.50;50.05
19624;BME280;9959;49.798;9.928;2023-04-20T09:47:34;99509.63;;;11.06;51.50
19624;BME280;9959;49.798;9.928;2023-04-20T09:50:03;99514.53;;;10.53;53.27
19624;BME280;9959;49.798;9.928;2023-04-20T09:52:50;99505.53;;;10.97;52.03
19624;BME280;9959;49.798;9.928;2023-04-20T09:55:18;99499.09;;;10.67;52.58
19624;BME280;9959;49.798;9.928;2023-04-20T09:57:45;99510.03;;;11.10;51.70
19624;BME280;9959;49.798;9.928;2023-04-20T10:00:12;99498.06;;;10.99;51.26
19624;BME280;9959;49.798;9.928;2023-04-20T10:02:39;99495.13;;;11.07;51.07
19624;BME280;9959;49.798;9.928;2023-04-20T10:05:06;99493.91;;;11.03;51.68
19624;BME280;9959;49.798;9.928;2023-04-20T10:07:34;99496.28;;;11.18;51.48
19624;BME280;9959;49.798;9.928;2023-04-20T10:10:14;99490.59;;;11.01;51.62
19624;BME280;9959;49.798;9.928;2023-04-20T10:12:55;99496.81;;;11.51;50.07
19624;BME280;9959;49.798;9.928;2023-04-20T10:15:23;99482.94;;;11.23;49.88
19624;BME280;9959;49.798;9.928;2023-04-20T10:18:01;99474.19;;;11.03;49.84
19624;BME280;9959;49.798;9.928;2023-04-20T10:20:28;99473.34;;;11.09;48.98
19624;BME280;9959;49.798;9.928;2023-04-20T10:23:14;99472.34;;;11.28;47.99
19624;BME280;9959;49.798;9.928;2023-04-20T10:25:42;99469.38;;;11.11;48.07
19624;BME280;9959;49.798;9.928;2023-04-20T10:28:10;99465.94;;;11.23;47.92
19624;BME280;9959;49.798;9.928;2023-04-20T10:30:48;99456.88;;;11.42;47.72
19624;BME280;9959;49.798;9.928;2023-04-20T10:33:16;99451.94;;;11.57;47.09
19624;BME280;9959;49.798;9.928;2023-04-20T10:35:51;99453.19;;;11.79;44.88
19624;BME280;9959;49.798;9.928;2023-04-20T10:40:54;99442.84;;;11.95;43.24
19624;BME280;9959;49.798;9.928;2023-04-20T10:43:21;99447.41;;;12.31;42.86
19624;BME280;9959;49.798;9.928;2023-04-20T10:45:49;99441.47;;;12.04;43.71
19624;BME280;9959;49.798;9.928;2023-04-20T10:48:16;99429.63;;;12.05;43.94
19624;BME280;9959;49.798;9.928;2023-04-20T10:50:44;99431.16;;;13.14;42.13
19624;BME280;9959;49.798;9.928;2023-04-20T10:53:18;99430.63;;;12.40;42.86
19624;BME280;9959;49.798;9.928;2023-04-20T10:55:46;99426.50;;;12.68;42.63
19624;BME280;9959;49.798;9.928;2023-04-20T10:58:21;99421.72;;;12.93;41.15
19624;BME280;9959;49.798;9.928;2023-04-20T11:01:02;99422.34;;;12.05;41.97
19624;BME280;9959;49.798;9.928;2023-04-20T11:03:31;99418.66;;;12.18;41.57
19624;BME280;9959;49.798;9.928;2023-04-20T11:06:00;99413.78;;;12.27;41.04
19624;BME280;9959;49.798;9.928;2023-04-20T11:08:38;99416.59;;;12.32;41.05
19624;BME280;9959;49.798;9.928;2023-04-20T11:11:16;99413.28;;;12.60;41.23
19624;BME280;9959;49.798;9.928;2023-04-20T11:13:43;99400.03;;;11.98;41.62
19624;BME280;9959;49.798;9.928;2023-04-20T11:16:15;99406.25;;;11.99;40.92
19624;BME280;9959;49.798;9.928;2023-04-20T11:18:53;99406.53;;;12.09;41.16
19624;BME280;9959;49.798;9.928;2023-04-20T11:21:21;99397.13;;;12.30;40.59
19624;BME280;9959;49.798;9.928;2023-04-20T11:23:53;99397.16;;;12.41;40.98
19624;BME280;9959;49.798;9.928;2023-04-20T11:26:33;99390.88;;;11.99;41.75
19624;BME280;9959;49.798;9.928;2023-04-20T11:29:01;99392.25;;;12.20;41.64
19624;BME280;9959;49.798;9.928;2023-04-20T11:31:29;99382.81;;;12.11;41.91
19624;BME280;9959;49.798;9.928;2023-04-20T11:33:56;99392.59;;;11.75;41.88
19624;BME280;9959;49.798;9.928;2023-04-20T11:36:25;99390.66;;;11.82;42.09
19624;BME280;9959;49.798;9.928;2023-04-20T11:38:54;99386.16;;;11.76;41.75
19624;BME280;9959;49.798;9.928;2023-04-20T11:41:21;99388.63;;;11.96;41.62
19624;BME280;9959;49.798;9.928;2023-04-20T11:43:48;99390.66;;;11.82;41.09
19624;BME280;9959;49.798;9.928;2023-04-20T11:46:19;99381.78;;;12.42;40.72
19624;BME280;9959;49.798;9.928;2023-04-20T11:48:47;99376.88;;;12.20;41.25
19624;BME280;9959;49.798;9.928;2023-04-20T11:51:14;99368.34;;;12.88;41.03
19624;BME280;9959;49.798;9.928;2023-04-20T11:53:41;99361.94;;;13.25;39.54
19624;BME280;9959;49.798;9.928;2023-04-20T11:56:08;99364.41;;;13.89;38.83
19624;BME280;9959;49.798;9.928;2023-04-20T11:58:35;99357.66;;;14.04;38.99
19624;BME280;9959;49.798;9.928;2023-04-20T12:01:02;99344.09;;;14.61;38.06
19624;BME280;9959;49.798;9.928;2023-04-20T12:03:31;99345.22;;;13.04;40.37
19624;BME280;9959;49.798;9.928;2023-04-20T12:05:58;99348.72;;;12.93;40.09
19624;BME280;9959;49.798;9.928;2023-04-20T12:08:25;99349.34;;;12.30;40.62
19624;BME280;9959;49.798;9.928;2023-04-20T12:10:52;99357.22;;;12.02;40.22
19624;BME280;9959;49.798;9.928;2023-04-20T12:13:18;99364.94;;;11.98;40.02
19624;BME280;9959;49.798;9.928;2023-04-20T12:15:45;99351.66;;;11.97;40.31
19624;BME280;9959;49.798;9.928;2023-04-20T12:18:12;99360.72;;;12.02;40.52
19624;BME280;9959;49.798;9.928;2023-04-20T12:20:39;99356.66;;;12.11;40.45
19624;BME280;9959;49.798;9.928;2023-04-20T12:23:06;99350.16;;;12.01;39.54
19624;BME280;9959;49.798;9.928;2023-04-20T12:25:33;99351.66;;;11.78;39.73
19624;BME280;9959;49.798;9.928;2023-04-20T12:28:00;99350.31;;;11.69;40.12
19624;BME280;9959;49.798;9.928;2023-04-20T12:30:33;99349.22;;;12.07;39.73
19624;BME280;9959;49.798;9.928;2023-04-20T12:33:02;99345.81;;;12.00;40.30
19624;BME280;9959;49.798;9.928;2023-04-20T12:35:29;99346.13;;;11.92;41.52
19624;BME280;9959;49.798;9.928;2023-04-20T12:37:56;99349.88;;;11.91;41.94
19624;BME280;9959;49.798;9.928;2023-04-20T12:40:23;99348.28;;;11.83;42.42
19624;BME280;9959;49.798;9.928;2023-04-20T12:42:50;99350.91;;;11.53;43.66
19624;BME280;9959;49.798;9.928;2023-04-20T12:45:17;99352.72;;;11.59;44.60
19624;BME280;9959;49.798;9.928;2023-04-20T12:47:44;99349.25;;;11.15;46.37
19624;BME280;9959;49.798;9.928;2023-04-20T12:50:11;99362.81;;;11.09;47.43
19624;BME280;9959;49.798;9.928;2023-04-20T12:52:38;99364.13;;;10.75;48.45
19624;BME280;9959;49.798;9.928;2023-04-20T12:55:06;99372.22;;;10.75;49.27
19624;BME280;9959;49.798;9.928;2023-04-20T12:57:33;99370.91;;;10.84;49.11
19624;BME280;9959;49.798;9.928;2023-04-20T13:00:00;99382.09;;;10.56;50.75
19624;BME280;9959;49.798;9.928;2023-04-20T13:02:32;99385.41;;;10.27;51.85
19624;BME280;9959;49.798;9.928;2023-04-20T13:04:59;99378.94;;;10.34;51.83
19624;BME280;9959;49.798;9.928;2023-04-20T13:07:26;99384.75;;;10.31;52.67
19624;BME280;9959;49.798;9.928;2023-04-20T13:09:57;99383.56;;;10.14;53.65
19624;BME280;9959;49.798;9.928;2023-04-20T13:12:27;99379.56;;;10.36;53.82
19624;BME280;9959;49.798;9.928;2023-04-20T13:14:54;99385.50;;;10.00;55.96
19624;BME280;9959;49.798;9.928;2023-04-20T13:17:21;99387.13;;;10.08;55.30
19624;BME280;9959;49.798;9.928;2023-04-20T13:19:49;99386.38;;;9.88;55.81
19624;BME280;9959;49.798;9.928;2023-04-20T13:22:15;99386.34;;;9.94;55.24
19624;BME280;9959;49.798;9.928;2023-04-20T13:24:44;99377.63;;;10.05;55.93